الصفحة الرئيسية
METAR-TAF:

METAR-TAF

مطار :

Fort Bliss, تكساس, الولايات المتحدة

دائرة عرض: 31-50-58N, خط طول: 106-22-48W, ارتفاع: 1203 متر

مراقبة الطقس الحالي

تاريخ ووقت الإصدار 12 دقيقة قبل الساعة 00:58UTC
ريح 7 عقدة من الغرب/الجنوب الغربي
درجة الحرارة 12°درجة مئوية
الرطوبة 54%
ضغط 1019 hPa
الرؤية: 16.1 كم
سماء صافية

METAR: KBIF 230058Z AUTO 25007KT 10SM CLR 12/03 A3009 RMK AO2 CIG 050 RWY03 SLP164 T01240026 $

زمن: 18:10 (01:10 UTC)

توقعات

تاريخ ووقت الإصدار 3ساعات و 10 دقيقة قبل الساعة 22:00UTC
التوقعات صالحة من22 الساعة 22 UTC إلى 24 الساعة 04 UTC
ريح 12 عقدة من الجنوب الغربي
الرؤية 10 كم أو أكثر
غيوم متفرقة على ارتفاع 5000 قدم
أصبح
من 22 الساعة 23 UTC إلى 22 الساعة 24 UTC
ريح 6 عقدةمن اتجاهات متغيرة
الرؤية 10 كم أو أكثر
غيوم قليلة على ارتفاع 20000 قدم

TAF: KBIF 222200Z 2222/2404 23012KT 9999 SCT050 QNH3006INS BECMG 2223/2224 VRB06KT 9999 FEW200 QNH3008INS TX16/2321Z TN01/2313Z

أرصاد الطقس والتوقعات من أكثر من 4000 مطار (تقارير الطقس للمطار METAR والتنبؤ بالطقس بالمطارTAF).

المحطات المتاحة هي النقط الصفراء والحمراء على الخريطة.

حرك المؤشر فوق النقطة لمعرفة اسم المحطة.

ثم انقر لمعرفة أرصاد وتوقعات الطقس.

لتغيير الخارطة: اضغط على الأزرار الخضراء مع رمز الصليب الأسود للتكبير. على الزر الأخضر مع شرطة للتصغير، أو على الأسهم الخضراء للخرائط المجاورة.


METAR-TAF: